Time;durP1;ratioP1;P1;durP2;ratioP2;P2;SDS_P1;SDS_P2;PMS_P1;PMS_P2;Temp;Humidity;BMP_temperature;BMP_pressure;BME280_temperature;BME280_humidity;BME280_pressure;Samples;Min_cycle;Max_cycle;Signal;HPM_P1;HPM_P2
2022/01/31 00:01:18;;;;;;;;;;;3.80;80.20;;;;;;5017648;28;20344;-45
2022/01/31 00:03:45;;;;;;;30.73;5.80;;;3.80;80.50;;;;;;5017391;28;19940;-46
2022/01/31 00:06:12;;;;;;;24.08;5.47;;;3.70;80.50;;;;;;5017058;28;20033;-46
2022/01/31 00:08:42;;;;;;;24.85;6.50;;;3.70;80.30;;;;;;5016090;28;20410;-48
2022/01/31 00:11:12;;;;;;;21.13;4.95;;;3.70;80.40;;;;;;5017095;28;20030;-45
2022/01/31 00:13:43;;;;;;;30.23;7.88;;;3.70;80.60;;;;;;5016009;28;20109;-45
2022/01/31 00:16:15;;;;;;;27.88;6.43;;;3.70;80.70;;;;;;5017423;28;20037;-46
2022/01/31 00:18:42;;;;;;;33.35;5.50;;;3.70;80.50;;;;;;5017054;28;20456;-46
2022/01/31 00:21:08;;;;;;;28.20;5.35;;;3.70;80.60;;;;;;5017045;28;20410;-45
2022/01/31 00:23:36;;;;;;;17.85;4.15;;;3.80;80.60;;;;;;5016833;28;20038;-45
2022/01/31 00:26:03;;;;;;;28.92;5.55;;;3.80;80.80;;;;;;5017060;28;20064;-46
2022/01/31 00:28:30;;;;;;;25.05;5.22;;;3.80;80.50;;;;;;5016858;28;20069;-46
2022/01/31 00:30:59;;;;;;;27.80;5.65;;;3.80;80.60;;;;;;5016685;28;20081;-46
2022/01/31 00:33:31;;;;;;;22.17;4.40;;;3.90;80.20;;;;;;5016734;28;20033;-46
2022/01/31 00:35:57;;;;;;;27.65;6.50;;;3.90;80.50;;;;;;5016771;28;20466;-47
2022/01/31 00:38:23;;;;;;;23.10;5.30;;;3.90;80.30;;;;;;5016635;28;20030;-45
2022/01/31 00:40:49;;;;;;;30.45;6.10;;;3.90;80.20;;;;;;5016659;28;20113;-46
2022/01/31 00:43:16;;;;;;;35.00;5.38;;;3.90;80.20;;;;;;5016158;28;20105;-48
2022/01/31 00:46:02;;;;;;;24.25;4.22;;;3.90;80.30;;;;;;5001833;28;20046;-48
2022/01/31 00:48:34;;;;;;;18.02;4.32;;;3.90;80.10;;;;;;4995978;28;20085;-46
2022/01/31 00:51:07;;;;;;;23.15;5.53;;;3.90;80.00;;;;;;5009710;28;20034;-46
2022/01/31 00:53:34;;;;;;;28.90;5.30;;;3.90;80.30;;;;;;5016357;28;20069;-46
2022/01/31 00:56:01;;;;;;;17.00;3.88;;;3.90;80.10;;;;;;5016144;28;20391;-49
2022/01/31 00:58:27;;;;;;;17.65;4.95;;;3.90;80.00;;;;;;5016262;28;20026;-45
2022/01/31 01:00:54;;;;;;;21.30;5.25;;;3.90;80.20;;;;;;5015607;28;20049;-47
2022/01/31 01:03:24;;;;;;;24.40;7.25;;;3.90;80.00;;;;;;5016324;28;20084;-46
2022/01/31 01:05:50;;;;;;;23.95;5.25;;;4.00;80.00;;;;;;5014819;28;20423;-46
2022/01/31 01:08:17;;;;;;;23.30;5.95;;;3.90;80.00;;;;;;5015888;28;20042;-46
2022/01/31 01:10:44;;;;;;;19.98;3.83;;;4.00;80.10;;;;;;5015704;28;20430;-46
2022/01/31 01:13:12;;;;;;;15.52;3.92;;;3.90;80.20;;;;;;5014723;28;20081;-46
2022/01/31 01:15:38;;;;;;;18.67;5.82;;;3.90;80.60;;;;;;5014988;28;20042;-45
2022/01/31 01:18:05;;;;;;;20.77;4.93;;;3.90;81.00;;;;;;5015296;28;20033;-46
2022/01/31 01:20:32;;;;;;;19.15;4.28;;;3.90;81.20;;;;;;5015238;28;20037;-44
2022/01/31 01:22:59;;;;;;;24.30;5.00;;;3.90;81.30;;;;;;5014870;28;20034;-46
2022/01/31 01:25:26;;;;;;;18.27;4.47;;;3.90;81.50;;;;;;5014546;28;20347;-46
2022/01/31 01:27:53;;;;;;;16.52;4.32;;;3.90;81.50;;;;;;5015467;28;20038;-46
2022/01/31 01:30:23;;;;;;;19.48;4.95;;;3.90;81.70;;;;;;5015473;28;20512;-46
2022/01/31 01:35:17;;;;;;;17.85;5.43;;;3.80;82.10;;;;;;5015485;28;20331;-46
2022/01/31 01:37:44;;;;;;;16.08;3.53;;;3.80;82.30;;;;;;5015147;28;20033;-46
2022/01/31 01:40:11;;;;;;;14.48;3.85;;;3.70;82.70;;;;;;5015621;28;20097;-46
2022/01/31 01:42:40;;;;;;;14.98;3.97;;;3.70;82.80;;;;;;5015580;28;20117;-45
2022/01/31 01:45:07;;;;;;;18.10;4.15;;;3.70;82.70;;;;;;5015536;28;20030;-46
2022/01/31 01:47:36;;;;;;;16.65;4.05;;;3.70;82.70;;;;;;5015038;28;20108;-45
2022/01/31 01:50:03;;;;;;;15.68;4.47;;;3.70;82.80;;;;;;5015428;28;20406;-46
2022/01/31 01:52:30;;;;;;;17.60;4.45;;;3.60;82.70;;;;;;5014907;28;20116;-47
2022/01/31 01:54:56;;;;;;;17.63;5.45;;;3.60;82.80;;;;;;5013607;28;20034;-46
2022/01/31 01:57:24;;;;;;;18.77;4.53;;;3.50;82.80;;;;;;5014321;28;20033;-46
2022/01/31 01:59:56;;;;;;;27.95;4.78;;;3.50;83.10;;;;;;5010781;28;20030;-46
2022/01/31 02:02:23;;;;;;;17.65;3.72;;;3.50;83.10;;;;;;5011114;28;20034;-45
2022/01/31 02:04:52;;;;;;;20.98;5.22;;;3.50;83.20;;;;;;5005419;28;20042;-46
2022/01/31 02:07:20;;;;;;;22.05;4.10;;;3.50;83.00;;;;;;5009959;28;20034;-46
2022/01/31 02:09:54;;;;;;;20.42;4.47;;;3.50;83.10;;;;;;5015416;28;20096;-45
2022/01/31 02:12:21;;;;;;;17.48;4.90;;;3.50;83.00;;;;;;5014743;28;20042;-46
2022/01/31 02:14:47;;;;;;;24.65;5.72;;;3.50;82.70;;;;;;5013089;28;20406;-44
2022/01/31 02:17:14;;;;;;;15.75;4.20;;;3.50;82.90;;;;;;5007992;28;20066;-46
2022/01/31 02:19:40;;;;;;;22.48;5.65;;;3.60;82.70;;;;;;4995067;28;20449;-47
2022/01/31 02:22:07;;;;;;;20.67;4.78;;;3.60;82.60;;;;;;5006022;28;20113;-46
2022/01/31 02:24:34;;;;;;;18.35;7.13;;;3.60;82.70;;;;;;5014603;28;20069;-45
2022/01/31 02:27:03;;;;;;;22.65;5.38;;;3.70;82.80;;;;;;5014383;28;20052;-45
2022/01/31 02:29:33;;;;;;;19.65;5.90;;;3.60;82.90;;;;;;5014716;28;20029;-46
2022/01/31 02:32:00;;;;;;;;;;;3.60;83.30;;;;;;5014536;28;20081;-48
2022/01/31 02:34:27;;;;;;;27.48;5.55;;;3.60;83.70;;;;;;5014585;28;20334;-49
2022/01/31 02:36:54;;;;;;;16.23;5.30;;;3.70;84.20;;;;;;5013875;28;20411;-49
2022/01/31 02:39:21;;;;;;;33.97;6.82;;;3.60;84.30;;;;;;5014521;28;20502;-51
2022/01/31 02:41:48;;;;;;;26.52;6.78;;;3.60;84.80;;;;;;5014154;28;20053;-53
2022/01/31 02:44:16;;;;;;;32.92;7.38;;;3.60;85.00;;;;;;5014593;28;20231;-56
2022/01/31 02:46:49;;;;;;;25.83;5.90;;;3.60;85.00;;;;;;5014160;28;20088;-61
2022/01/31 02:49:20;;;;;;;18.70;5.68;;;3.60;85.20;;;;;;5014291;28;20033;-60
2022/01/31 02:51:58;;;;;;;22.75;7.40;;;3.60;85.50;;;;;;5014397;28;20041;-61
2022/01/31 02:54:25;;;;;;;19.75;5.60;;;3.60;85.30;;;;;;5014486;28;20061;-60
2022/01/31 02:56:52;;;;;;;18.77;5.68;;;3.50;85.60;;;;;;5013134;28;20087;-60
2022/01/31 02:59:19;;;;;;;24.02;7.18;;;3.50;86.00;;;;;;5014299;28;20036;-59
2022/01/31 03:01:46;;;;;;;21.77;7.57;;;3.50;86.10;;;;;;5014225;28;20385;-61
2022/01/31 03:04:12;;;;;;;22.67;6.55;;;3.50;86.20;;;;;;5014112;28;20390;-62
2022/01/31 03:06:47;;;;;;;18.38;7.70;;;3.40;86.40;;;;;;5012907;28;20037;-60
2022/01/31 03:09:17;;;;;;;22.83;8.07;;;3.40;86.60;;;;;;5014602;28;20030;-61
2022/01/31 03:11:45;;;;;;;27.13;7.78;;;3.40;86.70;;;;;;5014071;28;20061;-60
2022/01/31 03:14:11;;;;;;;18.95;7.07;;;3.30;86.70;;;;;;5014195;28;20033;-59
2022/01/31 03:16:42;;;;;;;22.27;7.45;;;3.40;87.10;;;;;;5013767;28;20041;-60
2022/01/31 03:19:09;;;;;;;18.08;7.88;;;3.40;87.30;;;;;;5013186;28;20108;-62
2022/01/31 03:21:37;;;;;;;17.83;7.53;;;3.40;87.30;;;;;;5013068;28;20100;-61
2022/01/31 03:24:05;;;;;;;24.50;6.90;;;3.30;87.30;;;;;;5014009;28;20528;-59
2022/01/31 03:26:33;;;;;;;16.70;8.00;;;3.30;87.40;;;;;;5014426;28;20036;-61
2022/01/31 03:28:58;;;;;;;20.15;7.38;;;3.20;87.70;;;;;;5016868;28;20030;-60
2022/01/31 03:31:28;;;;;;;20.10;8.55;;;3.20;87.80;;;;;;5018074;28;20088;-59
2022/01/31 03:33:57;;;;;;;20.40;7.60;;;3.20;87.80;;;;;;5017742;28;20040;-61
2022/01/31 03:36:23;;;;;;;23.00;7.72;;;3.20;87.90;;;;;;5017620;28;20043;-61
2022/01/31 03:38:51;;;;;;;21.85;8.27;;;3.10;88.10;;;;;;5017605;28;20030;-61
2022/01/31 03:41:20;;;;;;;18.50;7.15;;;3.00;87.90;;;;;;5017695;28;20026;-59
2022/01/31 03:43:48;;;;;;;21.48;7.32;;;2.90;88.00;;;;;;5017573;28;20788;-58
2022/01/31 03:46:14;;;;;;;16.42;7.90;;;2.90;88.30;;;;;;5017465;28;20053;-54
2022/01/31 03:48:43;;;;;;;20.65;8.13;;;2.90;88.10;;;;;;5017255;28;20060;-60
2022/01/31 03:51:10;;;;;;;19.90;8.07;;;2.80;88.50;;;;;;5017671;28;20457;-61
2022/01/31 03:53:37;;;;;;;29.48;11.45;;;2.80;88.70;;;;;;5017569;28;20363;-61
2022/01/31 03:56:04;;;;;;;17.05;8.75;;;2.80;89.00;;;;;;5017545;28;20064;-59
2022/01/31 03:58:31;;;;;;;18.50;9.15;;;2.70;88.80;;;;;;5016788;28;20022;-58
2022/01/31 04:00:58;;;;;;;21.75;9.48;;;2.70;89.10;;;;;;5015924;28;20040;-54
2022/01/31 04:03:25;;;;;;;19.90;9.43;;;2.70;89.20;;;;;;5016691;28;20117;-52
2022/01/31 04:05:51;;;;;;;20.63;9.43;;;2.70;89.20;;;;;;5017008;28;20088;-52
2022/01/31 04:08:19;;;;;;;23.65;8.93;;;2.70;89.30;;;;;;5016330;28;20053;-55
2022/01/31 04:10:46;;;;;;;20.27;8.55;;;2.70;89.10;;;;;;5016344;28;20117;-50
2022/01/31 04:13:16;;;;;;;25.00;10.70;;;2.70;89.20;;;;;;5016406;28;20057;-52
2022/01/31 04:15:44;;;;;;;15.63;8.85;;;2.70;89.20;;;;;;5017061;28;20092;-50
2022/01/31 04:18:10;;;;;;;28.73;12.07;;;2.70;89.20;;;;;;5016803;28;20067;-52
2022/01/31 04:20:37;;;;;;;25.73;11.38;;;2.70;89.20;;;;;;5016964;28;20506;-55
2022/01/31 04:23:09;;;;;;;14.40;7.97;;;2.60;89.00;;;;;;5015885;28;20034;-51
2022/01/31 04:28:32;;;;;;;15.60;8.85;;;2.60;89.30;;;;;;5017011;28;20064;-50
2022/01/31 04:31:34;;;;;;;19.83;8.57;;;2.60;89.20;;;;;;5016511;28;20435;-50
2022/01/31 04:34:01;;;;;;;14.02;8.27;;;2.50;89.10;;;;;;5016552;28;20060;-51
2022/01/31 04:36:27;;;;;;;18.48;10.13;;;2.50;89.20;;;;;;5015959;28;20026;-51
2022/01/31 04:38:53;;;;;;;17.13;9.60;;;2.40;89.30;;;;;;5015164;28;20038;-50
2022/01/31 04:41:21;;;;;;;22.20;10.95;;;2.40;89.40;;;;;;5016866;28;20091;-50
2022/01/31 04:43:53;;;;;;;13.40;8.77;;;2.40;89.50;;;;;;5015619;28;20061;-51
2022/01/31 04:46:20;;;;;;;17.50;9.18;;;2.40;89.70;;;;;;5016829;28;20049;-52
2022/01/31 04:48:49;;;;;;;20.65;9.50;;;2.40;89.50;;;;;;5016097;28;20222;-51
2022/01/31 04:51:19;;;;;;;19.92;9.93;;;2.30;89.70;;;;;;5016520;28;20026;-50
2022/01/31 04:53:44;;;;;;;19.08;9.90;;;2.30;89.70;;;;;;5015572;28;20465;-50
2022/01/31 04:56:12;;;;;;;16.10;12.38;;;2.20;89.80;;;;;;5016114;28;20112;-50
2022/01/31 04:58:39;;;;;;;17.45;11.00;;;2.20;89.90;;;;;;5017263;28;20030;-51
2022/01/31 05:01:07;;;;;;;16.88;11.25;;;2.30;90.20;;;;;;5016262;28;20022;-49
2022/01/31 05:03:34;;;;;;;20.13;12.27;;;2.20;90.00;;;;;;5016050;28;20608;-51
2022/01/31 05:06:01;;;;;;;22.23;11.70;;;2.20;90.20;;;;;;5016373;28;20106;-53
2022/01/31 05:08:29;;;;;;;14.50;11.27;;;2.20;90.20;;;;;;5016015;28;20056;-57
2022/01/31 05:10:57;;;;;;;15.60;11.32;;;2.20;90.10;;;;;;5016075;28;20160;-59
2022/01/31 05:13:27;;;;;;;15.07;11.00;;;2.20;90.20;;;;;;5015955;28;20080;-61
2022/01/31 05:15:55;;;;;;;18.52;11.75;;;2.20;90.20;;;;;;5015876;28;20040;-60
2022/01/31 05:18:22;;;;;;;13.43;10.35;;;2.20;90.20;;;;;;5015796;28;20024;-59
2022/01/31 05:20:49;;;;;;;17.15;13.07;;;2.10;90.10;;;;;;5015873;28;20099;-60
2022/01/31 05:23:16;;;;;;;15.80;12.20;;;2.10;90.20;;;;;;5015578;28;20034;-58
2022/01/31 05:25:42;;;;;;;15.38;11.13;;;2.10;90.10;;;;;;5014882;28;20048;-57
2022/01/31 05:28:09;;;;;;;15.43;12.13;;;2.00;90.00;;;;;;5015902;28;20037;-58
2022/01/31 05:30:37;;;;;;;15.05;11.57;;;2.00;90.10;;;;;;5014954;28;20066;-59
2022/01/31 05:33:03;;;;;;;13.77;11.20;;;2.10;90.30;;;;;;5015666;28;20506;-61
2022/01/31 05:35:33;;;;;;;16.73;12.38;;;2.10;90.20;;;;;;5014403;28;20026;-61
2022/01/31 05:38:00;;;;;;;17.23;12.35;;;2.10;90.20;;;;;;5015391;28;20382;-61
2022/01/31 05:40:28;;;;;;;15.20;12.00;;;2.00;89.90;;;;;;5013750;28;20056;-61
2022/01/31 05:42:55;;;;;;;16.80;11.93;;;2.00;90.00;;;;;;5007944;28;20027;-61
2022/01/31 05:45:21;;;;;;;16.27;12.05;;;2.00;89.90;;;;;;5009763;28;20030;-61
2022/01/31 05:47:48;;;;;;;16.70;11.40;;;2.10;90.00;;;;;;5009895;28;20042;-58
2022/01/31 05:50:15;;;;;;;13.27;11.13;;;2.00;89.90;;;;;;5013472;28;20490;-58
2022/01/31 05:52:43;;;;;;;12.85;10.27;;;2.10;90.00;;;;;;5012007;28;20439;-60
2022/01/31 05:55:09;;;;;;;13.63;10.48;;;2.00;89.90;;;;;;5014711;28;20026;-60
2022/01/31 05:57:36;;;;;;;14.45;10.45;;;2.10;90.00;;;;;;5011069;28;20040;-59
2022/01/31 06:00:05;;;;;;;11.07;9.77;;;2.10;90.10;;;;;;5010449;28;20439;-61
2022/01/31 06:02:32;;;;;;;12.15;10.23;;;2.10;89.90;;;;;;5012266;28;20073;-60
2022/01/31 06:04:59;;;;;;;12.60;10.13;;;2.10;90.00;;;;;;5013633;28;20030;-60
2022/01/31 06:07:31;;;;;;;11.18;9.70;;;2.00;89.80;;;;;;5012492;28;20076;-61
2022/01/31 06:10:00;;;;;;;10.88;9.15;;;2.00;89.90;;;;;;5013465;28;20099;-60
2022/01/31 06:12:26;;;;;;;12.68;10.25;;;2.10;90.00;;;;;;5007269;28;20034;-61
2022/01/31 06:14:52;;;;;;;14.70;10.23;;;2.10;90.00;;;;;;5013132;28;20022;-60
2022/01/31 06:17:18;;;;;;;16.42;11.73;;;2.20;90.00;;;;;;5004407;28;20117;-57
2022/01/31 06:19:48;;;;;;;13.90;10.82;;;2.20;90.10;;;;;;5002186;28;20041;-57
2022/01/31 06:22:15;;;;;;;13.10;10.73;;;2.20;89.90;;;;;;5007561;28;20042;-60
2022/01/31 06:24:42;;;;;;;14.45;11.25;;;2.10;89.90;;;;;;5010677;28;20061;-56
2022/01/31 06:27:10;;;;;;;15.55;12.52;;;2.20;90.00;;;;;;5004436;28;20038;-58
2022/01/31 06:29:35;;;;;;;14.48;11.25;;;2.10;90.00;;;;;;5005803;28;20348;-58
2022/01/31 06:32:01;;;;;;;17.63;12.27;;;2.20;90.20;;;;;;5003804;28;20060;-60
2022/01/31 06:34:28;;;;;;;14.05;11.88;;;2.30;90.10;;;;;;5009807;28;20439;-59
2022/01/31 06:36:57;;;;;;;16.17;11.68;;;2.30;90.20;;;;;;5010542;28;20026;-58
2022/01/31 06:39:24;;;;;;;15.25;12.40;;;2.30;90.30;;;;;;5010321;28;20022;-60
2022/01/31 06:41:51;;;;;;;14.85;11.93;;;2.40;90.30;;;;;;5013719;28;20112;-61
2022/01/31 06:44:18;;;;;;;14.75;11.98;;;2.40;90.40;;;;;;5006718;28;20022;-58
2022/01/31 06:46:44;;;;;;;15.13;12.30;;;2.40;90.40;;;;;;5003217;28;20033;-59
2022/01/31 06:49:17;;;;;;;16.20;11.80;;;2.40;90.30;;;;;;5013190;28;20033;-59
2022/01/31 06:51:44;;;;;;;14.93;12.30;;;2.50;90.30;;;;;;5006468;28;20049;-54
2022/01/31 06:54:10;;;;;;;19.00;13.52;;;2.40;90.30;;;;;;5009958;28;20174;-53
2022/01/31 06:56:40;;;;;;;19.60;13.38;;;2.50;90.50;;;;;;5010208;28;20050;-55
2022/01/31 06:59:06;;;;;;;18.48;13.55;;;2.50;90.50;;;;;;5010564;28;20022;-54
2022/01/31 07:01:33;;;;;;;19.05;12.48;;;2.60;90.50;;;;;;5007376;28;20041;-58
2022/01/31 07:04:00;;;;;;;20.38;13.23;;;2.60;90.50;;;;;;5008582;28;20395;-56
2022/01/31 07:06:27;;;;;;;15.85;11.98;;;2.60;90.30;;;;;;5010291;28;20571;-58
2022/01/31 07:08:59;;;;;;;17.52;11.95;;;2.70;90.50;;;;;;4999372;28;20026;-58
2022/01/31 07:11:29;;;;;;;14.25;11.35;;;2.70;90.50;;;;;;5014060;28;20096;-60
2022/01/31 07:14:29;;;;;;;20.52;13.52;;;2.70;90.50;;;;;;5014368;28;20481;-60
2022/01/31 07:16:48;;;;;;;19.77;13.23;;;2.70;90.60;;;;;;5013551;28;20347;-55
2022/01/31 07:19:15;;;;;;;15.68;10.80;;;2.80;90.60;;;;;;5013793;28;20402;-55
2022/01/31 07:21:48;;;;;;;16.92;12.63;;;2.80;90.70;;;;;;5004905;28;20030;-54
2022/01/31 07:26:46;;;;;;;;;;;2.90;90.80;;;;;;5005901;28;20032;-54
2022/01/31 07:29:12;;;;;;;15.00;11.38;;;2.90;90.80;;;;;;5014076;28;19910;-58
2022/01/31 07:31:39;;;;;;;18.17;12.25;;;3.00;90.80;;;;;;5010147;28;20045;-55
2022/01/31 07:34:07;;;;;;;17.70;11.25;;;3.00;90.80;;;;;;5005428;28;20026;-54
2022/01/31 07:36:34;;;;;;;20.45;12.20;;;3.10;90.80;;;;;;5008968;28;20026;-54
2022/01/31 07:39:02;;;;;;;15.52;11.45;;;3.10;90.90;;;;;;5008442;28;20503;-52
2022/01/31 07:41:29;;;;;;;17.90;11.75;;;3.10;90.90;;;;;;5012988;28;20021;-51
2022/01/31 07:43:56;;;;;;;19.30;11.88;;;3.20;91.00;;;;;;5001072;28;20034;-52
2022/01/31 07:46:23;;;;;;;17.35;11.05;;;3.20;91.10;;;;;;5005559;28;20038;-55
2022/01/31 07:48:49;;;;;;;16.58;11.45;;;3.30;91.10;;;;;;5007682;28;20053;-51
2022/01/31 07:51:17;;;;;;;17.73;11.60;;;3.30;91.10;;;;;;5012278;28;20113;-60
2022/01/31 07:53:44;;;;;;;17.05;10.77;;;3.40;91.10;;;;;;5004207;28;20100;-60
2022/01/31 07:56:14;;;;;;;21.80;11.93;;;3.40;91.10;;;;;;5009134;28;20085;-60
2022/01/31 07:58:40;;;;;;;19.98;11.80;;;3.50;91.10;;;;;;5011587;28;20026;-61
2022/01/31 08:01:07;;;;;;;22.30;11.88;;;3.50;91.20;;;;;;5012158;28;20041;-61
2022/01/31 08:03:34;;;;;;;20.10;10.75;;;3.60;91.20;;;;;;5007052;28;20038;-60
2022/01/31 08:06:01;;;;;;;18.45;10.63;;;3.60;91.30;;;;;;5010900;28;20080;-61
2022/01/31 08:08:31;;;;;;;22.80;9.93;;;3.70;91.50;;;;;;5012407;28;20044;-62
2022/01/31 08:10:59;;;;;;;18.52;9.95;;;3.80;91.60;;;;;;5012823;28;20034;-61
2022/01/31 08:13:26;;;;;;;21.23;9.20;;;3.90;91.60;;;;;;5012769;28;20108;-61
2022/01/31 08:18:42;;;;;;;23.45;8.55;;;4.00;91.70;;;;;;5016256;28;20064;-58
2022/01/31 08:21:11;;;;;;;22.55;9.85;;;4.00;91.80;;;;;;5014127;28;20451;-58
2022/01/31 08:23:38;;;;;;;27.93;9.00;;;4.10;91.90;;;;;;5007578;28;20057;-59
2022/01/31 08:26:08;;;;;;;29.00;9.13;;;4.10;91.90;;;;;;5008763;28;20429;-57
2022/01/31 08:28:56;;;;;;;22.95;9.18;;;4.20;91.90;;;;;;5010388;28;20461;-56
2022/01/31 08:31:38;;;;;;;22.27;9.23;;;4.30;92.00;;;;;;5011818;28;20057;-57
2022/01/31 08:34:21;;;;;;;24.58;9.02;;;4.40;92.00;;;;;;5007736;28;20096;-56
2022/01/31 08:36:49;;;;;;;16.00;8.25;;;4.40;92.00;;;;;;5015089;28;20113;-56
2022/01/31 08:39:21;;;;;;;21.77;8.65;;;4.50;91.90;;;;;;5015646;28;20478;-51
2022/01/31 08:41:51;;;;;;;16.90;7.32;;;4.50;91.90;;;;;;5014469;28;20033;-52
2022/01/31 08:44:23;;;;;;;19.20;7.75;;;4.60;91.80;;;;;;5014826;28;20085;-50
2022/01/31 08:46:51;;;;;;;16.15;8.02;;;4.60;91.80;;;;;;5014382;28;20057;-51
2022/01/31 08:49:18;;;;;;;21.17;6.93;;;4.60;91.70;;;;;;5015796;28;20030;-49
2022/01/31 08:51:46;;;;;;;14.88;7.40;;;4.70;91.80;;;;;;5014322;28;20029;-55
2022/01/31 08:54:14;;;;;;;22.17;8.23;;;4.60;91.70;;;;;;5009788;28;20088;-49
2022/01/31 08:56:45;;;;;;;19.15;9.05;;;4.70;91.70;;;;;;5010401;28;20034;-49
2022/01/31 08:59:16;;;;;;;17.73;6.70;;;4.80;91.80;;;;;;5013359;28;20128;-49
2022/01/31 09:01:43;;;;;;;14.27;5.97;;;4.90;91.80;;;;;;5011898;28;20033;-49
2022/01/31 09:04:12;;;;;;;17.73;7.63;;;4.90;91.70;;;;;;5015027;28;20030;-51
2022/01/31 09:06:38;;;;;;;30.63;7.63;;;4.90;91.70;;;;;;5014090;28;20026;-53
2022/01/31 09:09:08;;;;;;;17.85;5.28;;;5.00;91.70;;;;;;5014952;28;20458;-53
2022/01/31 09:11:37;;;;;;;13.65;5.05;;;5.00;91.70;;;;;;5014945;28;20477;-56
2022/01/31 09:14:08;;;;;;;15.10;5.00;;;5.00;91.70;;;;;;5013920;28;20030;-60
2022/01/31 09:16:35;;;;;;;20.15;4.72;;;5.00;91.60;;;;;;5014832;28;20088;-60
2022/01/31 09:19:03;;;;;;;21.60;4.13;;;5.00;91.60;;;;;;5009277;28;20051;-60
2022/01/31 09:21:34;;;;;;;25.48;4.25;;;5.10;91.60;;;;;;5015146;28;20033;-61
2022/01/31 09:24:00;;;;;;;17.27;4.47;;;5.10;91.70;;;;;;5014631;28;20065;-60
2022/01/31 09:26:26;;;;;;;15.45;4.38;;;5.20;91.70;;;;;;5013951;28;20734;-60
2022/01/31 09:28:54;;;;;;;14.77;3.60;;;5.20;91.70;;;;;;5013937;28;20117;-62
2022/01/31 09:31:22;;;;;;;12.15;3.67;;;5.30;91.80;;;;;;5013456;28;20054;-60
2022/01/31 09:33:49;;;;;;;17.17;4.05;;;5.40;91.80;;;;;;5013702;28;20037;-60
2022/01/31 09:36:17;;;;;;;21.73;4.30;;;5.40;91.80;;;;;;5004193;28;20040;-57
2022/01/31 09:38:44;;;;;;;17.80;3.70;;;5.40;91.80;;;;;;5012668;28;20462;-61
2022/01/31 09:41:15;;;;;;;21.30;4.70;;;5.50;91.80;;;;;;5014425;28;20034;-62
2022/01/31 09:48:44;;;;;;;14.23;4.88;;;5.50;91.50;;;;;;5014233;28;19913;-58
2022/01/31 09:51:31;;;;;;;18.88;4.72;;;5.50;91.60;;;;;;5013470;28;20029;-58
2022/01/31 09:54:03;;;;;;;15.43;3.90;;;5.60;91.70;;;;;;5003253;28;20112;-52
2022/01/31 09:56:33;;;;;;;20.83;4.45;;;5.60;91.80;;;;;;5013955;28;20052;-50
2022/01/31 09:59:01;;;;;;;;;;;5.70;91.90;;;;;;5014828;28;20435;-56
2022/01/31 10:01:30;;;;;;;21.02;5.53;;;5.70;92.00;;;;;;5014124;28;19913;-51
2022/01/31 10:04:00;;;;;;;15.50;3.70;;;5.80;92.10;;;;;;5013811;28;20097;-53
2022/01/31 10:06:46;;;;;;;13.57;3.50;;;5.90;92.20;;;;;;5012637;28;20034;-51
2022/01/31 10:09:30;;;;;;;19.90;6.25;;;5.90;92.20;;;;;;5013842;28;20105;-49
2022/01/31 10:17:59;;;;;;;10.52;2.47;;;5.90;92.10;;;;;;5013715;28;20053;-62
2022/01/31 10:20:29;;;;;;;11.85;2.53;;;5.90;92.10;;;;;;5012720;28;20540;-62
2022/01/31 10:23:16;;;;;;;8.05;2.42;;;5.80;92.00;;;;;;5013465;28;20391;-61
2022/01/31 10:25:43;;;;;;;11.48;2.70;;;5.80;92.00;;;;;;5013813;28;20030;-62
2022/01/31 10:28:11;;;;;;;12.38;4.47;;;5.70;92.00;;;;;;5012769;28;20034;-60
2022/01/31 10:30:39;;;;;;;14.63;8.82;;;5.80;92.10;;;;;;5013604;28;20137;-61
2022/01/31 10:33:08;;;;;;;20.13;10.55;;;5.90;91.90;;;;;;5013358;28;20048;-62
2022/01/31 10:35:39;;;;;;;26.60;20.73;;;5.80;91.60;;;;;;5013774;28;20359;-55
2022/01/31 10:38:14;;;;;;;60.90;38.08;;;5.60;91.20;;;;;;5013131;28;20026;-55
2022/01/31 10:57:09;;;;;;;22.58;12.13;;;5.40;90.60;;;;;;5013513;28;20083;-50
2022/01/31 10:59:47;;;;;;;16.00;11.18;;;5.40;90.80;;;;;;5013071;28;20034;-50
2022/01/31 11:02:26;;;;;;;18.58;12.02;;;5.40;90.60;;;;;;5012374;28;20097;-51
2022/01/31 11:04:53;;;;;;;19.50;13.25;;;5.40;90.50;;;;;;5012944;28;20442;-50
2022/01/31 11:07:22;;;;;;;18.13;12.25;;;5.50;90.60;;;;;;5011991;28;20048;-49
2022/01/31 11:09:51;;;;;;;15.02;13.43;;;5.50;90.30;;;;;;5009858;28;20033;-50
2022/01/31 11:12:22;;;;;;;20.20;17.63;;;5.50;90.30;;;;;;5012835;28;20619;-58
2022/01/31 11:14:56;;;;;;;21.98;15.35;;;5.30;89.90;;;;;;5011775;28;20050;-60
2022/01/31 11:17:24;;;;;;;17.92;14.75;;;5.20;89.90;;;;;;5013209;28;20088;-57
2022/01/31 11:19:57;;;;;;;21.67;14.57;;;5.10;89.90;;;;;;5011509;28;20033;-55
2022/01/31 11:22:37;;;;;;;19.20;14.95;;;5.00;89.70;;;;;;5013258;28;20045;-55
2022/01/31 11:25:08;;;;;;;23.25;15.15;;;4.90;89.50;;;;;;5013187;28;20025;-53
2022/01/31 11:27:37;;;;;;;18.98;14.77;;;4.90;89.60;;;;;;5012663;28;20068;-52
2022/01/31 11:30:04;;;;;;;24.02;17.77;;;4.90;89.80;;;;;;5011766;28;20074;-50
2022/01/31 11:32:32;;;;;;;20.70;15.32;;;4.90;90.10;;;;;;5011807;28;20042;-50
2022/01/31 11:35:01;;;;;;;27.83;16.48;;;4.90;89.70;;;;;;5003125;28;20034;-50
2022/01/31 11:37:28;;;;;;;27.70;16.52;;;4.90;89.90;;;;;;5012838;28;20041;-50
2022/01/31 11:40:03;;;;;;;24.40;17.27;;;4.90;89.70;;;;;;5012838;28;20037;-50
2022/01/31 11:42:31;;;;;;;25.77;17.48;;;4.90;89.60;;;;;;5012543;28;20029;-49
2022/01/31 11:45:19;;;;;;;40.17;29.52;;;4.90;89.40;;;;;;5012701;28;20041;-49
2022/01/31 11:47:49;;;;;;;24.40;15.48;;;4.90;89.40;;;;;;5012674;28;20439;-47
2022/01/31 11:50:16;;;;;;;;;;;4.90;89.20;;;;;;4999247;28;20038;-51
2022/01/31 11:52:50;;;;;;;18.25;14.80;;;4.90;89.20;;;;;;5016546;28;19913;-48
2022/01/31 11:55:19;;;;;;;23.02;16.58;;;4.90;89.30;;;;;;5015639;28;20037;-48
2022/01/31 11:57:48;;;;;;;19.27;15.27;;;5.00;89.40;;;;;;5013557;28;20041;-47
2022/01/31 12:00:18;;;;;;;20.77;14.30;;;5.00;89.00;;;;;;5015704;28;20550;-47
2022/01/31 12:02:54;;;;;;;19.77;13.75;;;5.00;89.00;;;;;;5015709;28;20045;-47
2022/01/31 12:05:30;;;;;;;18.42;13.27;;;5.20;88.90;;;;;;5000965;28;20021;-47
2022/01/31 12:08:18;;;;;;;15.95;13.75;;;5.20;88.60;;;;;;5009763;28;20073;-48
2022/01/31 12:11:02;;;;;;;16.00;13.52;;;5.30;88.40;;;;;;5011817;28;20030;-46
2022/01/31 12:13:49;;;;;;;23.02;12.20;;;5.30;88.40;;;;;;5000936;28;20541;-46
2022/01/31 12:19:17;;;;;;;15.85;11.93;;;5.30;88.00;;;;;;5015717;28;20116;-47
2022/01/31 12:22:00;;;;;;;17.40;11.95;;;5.30;88.10;;;;;;5012456;28;20057;-46
2022/01/31 12:24:33;;;;;;;14.93;10.57;;;5.20;87.90;;;;;;5016407;28;20058;-46
2022/01/31 12:27:18;;;;;;;14.35;10.88;;;5.10;87.80;;;;;;5016425;28;20056;-45
2022/01/31 12:29:56;;;;;;;13.13;9.95;;;5.00;88.00;;;;;;5015544;28;20029;-46
2022/01/31 12:32:38;;;;;;;21.02;11.50;;;4.90;88.00;;;;;;4976244;28;20066;-46
2022/01/31 12:35:30;;;;;;;13.82;11.68;;;4.80;87.90;;;;;;4971563;28;20081;-46
2022/01/31 12:37:57;;;;;;;13.43;10.60;;;4.80;88.10;;;;;;4975169;28;20038;-44
2022/01/31 12:40:33;;;;;;;17.35;13.43;;;4.60;87.90;;;;;;4976562;28;20023;-46
2022/01/31 12:43:47;;;;;;;19.75;15.35;;;4.60;88.40;;;;;;4967049;28;20118;-45
2022/01/31 12:46:16;;;;;;;18.73;12.98;;;4.60;88.50;;;;;;4968109;28;20034;-46
2022/01/31 12:49:04;;;;;;;18.50;12.13;;;4.40;88.20;;;;;;4969821;28;20030;-44
2022/01/31 12:51:30;;;;;;;13.30;10.55;;;4.40;88.20;;;;;;4974251;28;20460;-47
2022/01/31 12:53:58;;;;;;;12.60;9.95;;;4.30;88.20;;;;;;4975077;28;20039;-47
2022/01/31 12:56:30;;;;;;;11.65;10.40;;;4.20;88.10;;;;;;4971365;28;20047;-49
2022/01/31 12:59:17;;;;;;;13.95;10.90;;;4.00;88.40;;;;;;4961652;28;20031;-45
2022/01/31 13:01:47;;;;;;;14.02;10.10;;;3.90;88.20;;;;;;4973681;28;20867;-46
2022/01/31 13:04:22;;;;;;;12.48;9.57;;;3.90;88.60;;;;;;4974181;28;20041;-45
2022/01/31 13:07:12;;;;;;;12.52;10.43;;;3.90;88.50;;;;;;4975943;28;20121;-46
2022/01/31 13:09:39;;;;;;;14.30;11.32;;;3.90;88.40;;;;;;4979091;28;20031;-47
2022/01/31 13:12:10;;;;;;;13.93;10.73;;;3.90;88.30;;;;;;4965885;28;20745;-45
2022/01/31 13:14:40;;;;;;;14.25;11.63;;;3.90;88.50;;;;;;4974354;28;20030;-46
2022/01/31 13:17:25;;;;;;;13.00;10.50;;;3.80;88.40;;;;;;4975635;28;20034;-45
2022/01/31 13:20:02;;;;;;;11.73;9.25;;;3.70;88.40;;;;;;4974969;28;20097;-45
2022/01/31 13:22:47;;;;;;;12.75;9.50;;;3.70;88.40;;;;;;4974711;28;20027;-49
2022/01/31 13:25:15;;;;;;;12.70;10.55;;;3.70;88.20;;;;;;4974946;28;20038;-46
2022/01/31 13:27:45;;;;;;;12.90;9.65;;;3.70;88.40;;;;;;4966384;28;20035;-46
2022/01/31 13:30:22;;;;;;;13.75;10.73;;;3.70;88.60;;;;;;4978668;28;20062;-46
2022/01/31 13:32:49;;;;;;;11.00;8.82;;;3.70;87.90;;;;;;5011697;28;20045;-45
2022/01/31 13:35:22;;;;;;;10.82;8.80;;;3.70;87.80;;;;;;5012947;28;20060;-47
2022/01/31 13:37:55;;;;;;;11.18;8.48;;;3.70;87.70;;;;;;5014281;28;20026;-45